Monday, April 21, 2014
07:24 UTC
  |  Log In   |  Register Free
Airport Search:

Smithville Municipal Airport
(0A3)

Smithville Municipal Airport Diagram
No Airport Diagram Available

FAA data valid effective April 3, 2014 until May 29, 2014 (unless otherwise noted).

 
 
 
 
 
 
 
 
 
 
 
 
 
 

Current Aviation Weather for Smithville Municipal Airport (0A3)

The most recent METAR observation for KSRB was updated at: 0655 UTC
METAR Summary (Translated METAR)
KSRB
210655Z AUTO 00000KT 10SM CLR 07/06 A3011 RMK
KCSV
(22.5 nm SE from KSRB)
210653Z AUTO 18004KT 10SM CLR 13/05 A3015 RMK AO2 SLP195 T01280050
TAF Summary (Translated TAF)
KCSV
(22.5 nm SE from KSRB)
210529Z 2106/2206 00000KT P6SM SCT250 FM211400 23007KT P6SM SCT060 BKN250 FM212100 23005KT P6SM BKN050 OVC150
  Airport Weather Conditions for 0A3

Current weather conditions are
not available for 0A3


The nearest NOAA weather station
is at SRB, (14.2 nm NE from 0A3)
  
 Current Weather at SRB
45° F
Fair
North winds at 0.0 mph
SRB NOAA Radar

Pressure: 30.11 in
Humidity: 93%
Wind: Calm
Dew Point: 42.8°F
Visibility: 10.00 mi


Airport Weather Forecast for 0A3

Translated METAR and TAF for KSRB
Translated METAR for KSRB (0724 UTC 21 April 2014)
found at http://aviationweather.gov/adds/metars/
 
METAR text: KSRB 210715Z AUTO 00000KT 10SM CLR 07/06 A3011 RMK
Conditions at: KSRB (SPARTA , TN, US) observed 0715 UTC 21 April 2014
Temperature: 7.0°C (45°F)
Dewpoint: 6.0°C (43°F) [RH = 93%]
Pressure (altimeter): 30.11 inches Hg (1019.7 mb)
Winds: calm
Visibility: 10 or more miles (16+ km)
Ceiling: at least 12,000 feet AGL
Clouds: sky clear below 12,000 feet AGL
Weather: no significant weather observed at this time
Translated TAF for KSRB

There is no translated TAF available for this airport

Find All Airport Services Find A Hotel Find A Rental Car Find A Golf Course Find A Restaurant $100 Hamburger



FBO's on the Field
FBO Company Facility Photos Services Transportation Aviation Fuel Prices: Prices include tax
Catering Weather Repair Courtesy Rental Type 100LL JetA JetA+ MOGAS 8087
 
Smithville Municipal Airport

This FBO has not yet been rated
FS:Shell
Last Updated: Mar-24
Login to update fuel prices
SS:
Contact Smithville Municipal AirportMore FBO Information
 
Add another FBO Facility Photos Catering Weather Repair Courtesy Rental Type 100LL JetA JetA+ MOGAS 8087
Services Transportation Aviation Fuel Prices: Prices include tax


GlobalAir.com Airport Resource Center model-print
model-print
model-print
model-print